sensor_id;sensor_type;location;lat;lon;timestamp;P1;durP1;ratioP1;P2;durP2;ratioP2
70467;SDS011;57934;51.532;7.684;2023-12-20T00:02:07;94.40;;;31.15;;
70467;SDS011;57934;51.532;7.684;2023-12-20T00:04:34;143.80;;;33.20;;
70467;SDS011;57934;51.532;7.684;2023-12-20T00:07:01;121.30;;;33.47;;
70467;SDS011;57934;51.532;7.684;2023-12-20T00:09:27;121.75;;;32.75;;
70467;SDS011;57934;51.532;7.684;2023-12-20T00:11:53;93.70;;;31.90;;
70467;SDS011;57934;51.532;7.684;2023-12-20T00:14:19;120.53;;;32.65;;
70467;SDS011;57934;51.532;7.684;2023-12-20T00:16:45;99.82;;;31.65;;
70467;SDS011;57934;51.532;7.684;2023-12-20T00:19:12;99.10;;;30.42;;
70467;SDS011;57934;51.532;7.684;2023-12-20T00:21:38;92.28;;;29.25;;
70467;SDS011;57934;51.532;7.684;2023-12-20T00:24:04;95.55;;;28.70;;
70467;SDS011;57934;51.532;7.684;2023-12-20T00:26:30;110.75;;;29.58;;
70467;SDS011;57934;51.532;7.684;2023-12-20T00:28:56;94.53;;;26.90;;
70467;SDS011;57934;51.532;7.684;2023-12-20T00:31:22;82.55;;;24.98;;
70467;SDS011;57934;51.532;7.684;2023-12-20T00:33:48;94.35;;;26.25;;
70467;SDS011;57934;51.532;7.684;2023-12-20T00:36:20;79.40;;;24.80;;
70467;SDS011;57934;51.532;7.684;2023-12-20T00:38:46;101.85;;;24.17;;
70467;SDS011;57934;51.532;7.684;2023-12-20T00:41:13;85.68;;;23.77;;
70467;SDS011;57934;51.532;7.684;2023-12-20T00:43:39;80.05;;;23.65;;
70467;SDS011;57934;51.532;7.684;2023-12-20T00:46:05;111.63;;;23.67;;
70467;SDS011;57934;51.532;7.684;2023-12-20T00:48:31;79.75;;;22.48;;
70467;SDS011;57934;51.532;7.684;2023-12-20T00:50:58;85.47;;;23.73;;
70467;SDS011;57934;51.532;7.684;2023-12-20T00:53:24;86.03;;;22.95;;
70467;SDS011;57934;51.532;7.684;2023-12-20T00:55:50;80.60;;;22.75;;
70467;SDS011;57934;51.532;7.684;2023-12-20T00:58:16;82.07;;;22.25;;
70467;SDS011;57934;51.532;7.684;2023-12-20T01:00:43;71.13;;;21.35;;
70467;SDS011;57934;51.532;7.684;2023-12-20T01:03:09;74.50;;;21.45;;
70467;SDS011;57934;51.532;7.684;2023-12-20T01:05:35;80.55;;;22.35;;
70467;SDS011;57934;51.532;7.684;2023-12-20T01:08:01;65.80;;;22.83;;
70467;SDS011;57934;51.532;7.684;2023-12-20T01:10:28;78.65;;;22.67;;
70467;SDS011;57934;51.532;7.684;2023-12-20T01:12:55;70.93;;;22.55;;
70467;SDS011;57934;51.532;7.684;2023-12-20T01:15:21;66.63;;;21.95;;
70467;SDS011;57934;51.532;7.684;2023-12-20T01:17:47;62.00;;;18.85;;
70467;SDS011;57934;51.532;7.684;2023-12-20T01:20:13;57.60;;;17.25;;
70467;SDS011;57934;51.532;7.684;2023-12-20T01:22:39;54.85;;;15.57;;
70467;SDS011;57934;51.532;7.684;2023-12-20T01:25:05;45.92;;;15.68;;
70467;SDS011;57934;51.532;7.684;2023-12-20T01:27:32;39.90;;;13.50;;
70467;SDS011;57934;51.532;7.684;2023-12-20T01:29:58;38.70;;;13.95;;
70467;SDS011;57934;51.532;7.684;2023-12-20T01:32:24;34.65;;;13.25;;
70467;SDS011;57934;51.532;7.684;2023-12-20T01:34:50;42.55;;;12.82;;
70467;SDS011;57934;51.532;7.684;2023-12-20T01:37:17;34.08;;;11.98;;
70467;SDS011;57934;51.532;7.684;2023-12-20T01:39:43;36.72;;;12.02;;
70467;SDS011;57934;51.532;7.684;2023-12-20T01:42:09;42.90;;;10.90;;
70467;SDS011;57934;51.532;7.684;2023-12-20T01:44:35;35.00;;;10.75;;
70467;SDS011;57934;51.532;7.684;2023-12-20T01:47:01;36.38;;;10.77;;
70467;SDS011;57934;51.532;7.684;2023-12-20T01:49:27;37.03;;;9.90;;
70467;SDS011;57934;51.532;7.684;2023-12-20T01:51:54;29.20;;;8.02;;
70467;SDS011;57934;51.532;7.684;2023-12-20T01:54:20;30.25;;;8.15;;
70467;SDS011;57934;51.532;7.684;2023-12-20T01:56:46;22.85;;;8.10;;
70467;SDS011;57934;51.532;7.684;2023-12-20T01:59:14;33.22;;;7.05;;
70467;SDS011;57934;51.532;7.684;2023-12-20T02:01:40;30.33;;;6.93;;
70467;SDS011;57934;51.532;7.684;2023-12-20T02:04:06;24.10;;;6.80;;
70467;SDS011;57934;51.532;7.684;2023-12-20T02:06:33;25.67;;;6.85;;
70467;SDS011;57934;51.532;7.684;2023-12-20T02:09:00;24.50;;;6.50;;
70467;SDS011;57934;51.532;7.684;2023-12-20T02:11:27;21.35;;;6.47;;
70467;SDS011;57934;51.532;7.684;2023-12-20T02:13:54;24.02;;;5.57;;
70467;SDS011;57934;51.532;7.684;2023-12-20T02:16:21;19.63;;;6.30;;
70467;SDS011;57934;51.532;7.684;2023-12-20T02:18:47;19.50;;;5.78;;
70467;SDS011;57934;51.532;7.684;2023-12-20T02:21:13;17.42;;;5.90;;
70467;SDS011;57934;51.532;7.684;2023-12-20T02:23:40;21.05;;;5.90;;
70467;SDS011;57934;51.532;7.684;2023-12-20T02:26:06;19.85;;;5.93;;
70467;SDS011;57934;51.532;7.684;2023-12-20T02:28:33;19.98;;;6.07;;
70467;SDS011;57934;51.532;7.684;2023-12-20T02:31:00;19.15;;;5.93;;
70467;SDS011;57934;51.532;7.684;2023-12-20T02:33:26;27.05;;;5.78;;
70467;SDS011;57934;51.532;7.684;2023-12-20T02:35:52;21.65;;;6.47;;
70467;SDS011;57934;51.532;7.684;2023-12-20T02:38:18;30.17;;;6.60;;
70467;SDS011;57934;51.532;7.684;2023-12-20T02:40:44;18.55;;;7.03;;
70467;SDS011;57934;51.532;7.684;2023-12-20T02:43:10;26.98;;;7.45;;
70467;SDS011;57934;51.532;7.684;2023-12-20T02:45:36;22.80;;;7.18;;
70467;SDS011;57934;51.532;7.684;2023-12-20T02:48:02;25.50;;;7.70;;
70467;SDS011;57934;51.532;7.684;2023-12-20T02:50:28;26.00;;;8.57;;
70467;SDS011;57934;51.532;7.684;2023-12-20T02:52:54;22.63;;;6.72;;
70467;SDS011;57934;51.532;7.684;2023-12-20T02:55:20;29.05;;;8.48;;
70467;SDS011;57934;51.532;7.684;2023-12-20T02:57:46;24.00;;;7.68;;
70467;SDS011;57934;51.532;7.684;2023-12-20T03:00:12;25.60;;;7.40;;
70467;SDS011;57934;51.532;7.684;2023-12-20T03:02:39;19.50;;;6.40;;
70467;SDS011;57934;51.532;7.684;2023-12-20T03:05:05;19.80;;;7.10;;
70467;SDS011;57934;51.532;7.684;2023-12-20T03:07:31;22.75;;;6.35;;
70467;SDS011;57934;51.532;7.684;2023-12-20T03:09:58;23.27;;;7.03;;
70467;SDS011;57934;51.532;7.684;2023-12-20T03:12:24;14.77;;;5.85;;
70467;SDS011;57934;51.532;7.684;2023-12-20T03:14:50;13.85;;;5.45;;
70467;SDS011;57934;51.532;7.684;2023-12-20T03:17:16;19.17;;;5.90;;
70467;SDS011;57934;51.532;7.684;2023-12-20T03:19:42;14.82;;;6.10;;
70467;SDS011;57934;51.532;7.684;2023-12-20T03:22:08;18.52;;;6.50;;
70467;SDS011;57934;51.532;7.684;2023-12-20T03:24:33;15.25;;;5.85;;
70467;SDS011;57934;51.532;7.684;2023-12-20T03:27:00;16.38;;;5.60;;
70467;SDS011;57934;51.532;7.684;2023-12-20T03:29:26;20.58;;;5.47;;
70467;SDS011;57934;51.532;7.684;2023-12-20T03:31:51;16.60;;;4.82;;
70467;SDS011;57934;51.532;7.684;2023-12-20T03:34:17;12.82;;;4.97;;
70467;SDS011;57934;51.532;7.684;2023-12-20T03:36:44;18.45;;;5.45;;
70467;SDS011;57934;51.532;7.684;2023-12-20T03:39:10;22.98;;;5.13;;
70467;SDS011;57934;51.532;7.684;2023-12-20T03:41:36;17.20;;;5.30;;
70467;SDS011;57934;51.532;7.684;2023-12-20T03:44:02;19.05;;;4.90;;
70467;SDS011;57934;51.532;7.684;2023-12-20T03:46:28;17.30;;;5.35;;
70467;SDS011;57934;51.532;7.684;2023-12-20T03:48:54;16.90;;;5.25;;
70467;SDS011;57934;51.532;7.684;2023-12-20T03:51:20;19.23;;;5.38;;
70467;SDS011;57934;51.532;7.684;2023-12-20T03:53:46;22.30;;;6.20;;
70467;SDS011;57934;51.532;7.684;2023-12-20T03:56:12;23.35;;;6.47;;
70467;SDS011;57934;51.532;7.684;2023-12-20T03:58:38;21.92;;;5.60;;
70467;SDS011;57934;51.532;7.684;2023-12-20T04:01:09;23.92;;;6.68;;
70467;SDS011;57934;51.532;7.684;2023-12-20T04:03:36;18.40;;;6.15;;
70467;SDS011;57934;51.532;7.684;2023-12-20T04:06:02;20.27;;;6.03;;
70467;SDS011;57934;51.532;7.684;2023-12-20T04:08:28;17.42;;;5.57;;
70467;SDS011;57934;51.532;7.684;2023-12-20T04:10:54;19.27;;;5.55;;
70467;SDS011;57934;51.532;7.684;2023-12-20T04:13:20;29.38;;;6.78;;
70467;SDS011;57934;51.532;7.684;2023-12-20T04:15:46;16.75;;;6.13;;
70467;SDS011;57934;51.532;7.684;2023-12-20T04:18:12;24.30;;;6.97;;
70467;SDS011;57934;51.532;7.684;2023-12-20T04:20:38;27.85;;;7.57;;
70467;SDS011;57934;51.532;7.684;2023-12-20T04:23:04;22.40;;;7.03;;
70467;SDS011;57934;51.532;7.684;2023-12-20T04:25:30;27.60;;;8.23;;
70467;SDS011;57934;51.532;7.684;2023-12-20T04:27:56;24.10;;;9.38;;
70467;SDS011;57934;51.532;7.684;2023-12-20T04:30:22;24.50;;;9.23;;
70467;SDS011;57934;51.532;7.684;2023-12-20T04:32:48;24.08;;;8.27;;
70467;SDS011;57934;51.532;7.684;2023-12-20T04:35:14;18.70;;;8.45;;
70467;SDS011;57934;51.532;7.684;2023-12-20T04:37:40;29.63;;;9.00;;
70467;SDS011;57934;51.532;7.684;2023-12-20T04:40:07;28.85;;;9.13;;
70467;SDS011;57934;51.532;7.684;2023-12-20T04:42:34;23.25;;;8.25;;
70467;SDS011;57934;51.532;7.684;2023-12-20T04:44:59;22.20;;;9.05;;
70467;SDS011;57934;51.532;7.684;2023-12-20T04:47:26;23.88;;;10.27;;
70467;SDS011;57934;51.532;7.684;2023-12-20T04:49:52;30.70;;;8.98;;
70467;SDS011;57934;51.532;7.684;2023-12-20T04:52:18;23.05;;;8.02;;
70467;SDS011;57934;51.532;7.684;2023-12-20T04:54:44;22.63;;;8.80;;
70467;SDS011;57934;51.532;7.684;2023-12-20T04:57:10;27.52;;;8.82;;
70467;SDS011;57934;51.532;7.684;2023-12-20T04:59:36;19.42;;;7.45;;
70467;SDS011;57934;51.532;7.684;2023-12-20T05:02:02;26.67;;;7.65;;
70467;SDS011;57934;51.532;7.684;2023-12-20T05:04:28;24.77;;;8.45;;
70467;SDS011;57934;51.532;7.684;2023-12-20T05:06:54;26.60;;;8.93;;
70467;SDS011;57934;51.532;7.684;2023-12-20T05:09:20;18.08;;;8.57;;
70467;SDS011;57934;51.532;7.684;2023-12-20T05:11:46;27.63;;;9.13;;
70467;SDS011;57934;51.532;7.684;2023-12-20T05:14:12;26.05;;;10.20;;
70467;SDS011;57934;51.532;7.684;2023-12-20T05:16:39;27.70;;;9.27;;
70467;SDS011;57934;51.532;7.684;2023-12-20T05:19:05;31.92;;;10.70;;
70467;SDS011;57934;51.532;7.684;2023-12-20T05:21:32;23.40;;;9.35;;
70467;SDS011;57934;51.532;7.684;2023-12-20T05:23:59;21.30;;;8.73;;
70467;SDS011;57934;51.532;7.684;2023-12-20T05:26:25;23.75;;;9.50;;
70467;SDS011;57934;51.532;7.684;2023-12-20T05:28:51;34.53;;;9.50;;
70467;SDS011;57934;51.532;7.684;2023-12-20T05:31:18;25.30;;;9.45;;
70467;SDS011;57934;51.532;7.684;2023-12-20T05:33:44;28.13;;;9.63;;
70467;SDS011;57934;51.532;7.684;2023-12-20T05:36:10;26.63;;;9.80;;
70467;SDS011;57934;51.532;7.684;2023-12-20T05:38:39;23.70;;;9.80;;
70467;SDS011;57934;51.532;7.684;2023-12-20T05:41:05;27.20;;;10.18;;
70467;SDS011;57934;51.532;7.684;2023-12-20T05:43:31;23.52;;;9.43;;
70467;SDS011;57934;51.532;7.684;2023-12-20T05:45:57;27.17;;;8.40;;
70467;SDS011;57934;51.532;7.684;2023-12-20T05:48:23;25.83;;;9.70;;
70467;SDS011;57934;51.532;7.684;2023-12-20T05:50:49;24.60;;;9.10;;
70467;SDS011;57934;51.532;7.684;2023-12-20T05:53:15;24.50;;;9.15;;
70467;SDS011;57934;51.532;7.684;2023-12-20T05:55:41;24.63;;;9.30;;
70467;SDS011;57934;51.532;7.684;2023-12-20T05:58:07;25.50;;;9.30;;
70467;SDS011;57934;51.532;7.684;2023-12-20T06:00:33;32.55;;;9.43;;
70467;SDS011;57934;51.532;7.684;2023-12-20T06:02:59;32.22;;;9.68;;
70467;SDS011;57934;51.532;7.684;2023-12-20T06:05:25;29.20;;;9.15;;
70467;SDS011;57934;51.532;7.684;2023-12-20T06:07:51;28.67;;;10.57;;
70467;SDS011;57934;51.532;7.684;2023-12-20T06:10:18;30.58;;;9.50;;
70467;SDS011;57934;51.532;7.684;2023-12-20T06:12:44;28.00;;;8.90;;
70467;SDS011;57934;51.532;7.684;2023-12-20T06:15:10;28.52;;;9.35;;
70467;SDS011;57934;51.532;7.684;2023-12-20T06:17:36;20.20;;;8.32;;
70467;SDS011;57934;51.532;7.684;2023-12-20T06:20:03;26.60;;;9.35;;
70467;SDS011;57934;51.532;7.684;2023-12-20T06:22:34;21.17;;;8.48;;
70467;SDS011;57934;51.532;7.684;2023-12-20T06:25:00;19.88;;;9.07;;
70467;SDS011;57934;51.532;7.684;2023-12-20T06:27:26;27.88;;;9.27;;
70467;SDS011;57934;51.532;7.684;2023-12-20T06:29:52;25.50;;;9.55;;
70467;SDS011;57934;51.532;7.684;2023-12-20T06:32:18;24.83;;;8.68;;
70467;SDS011;57934;51.532;7.684;2023-12-20T06:34:44;25.02;;;9.10;;
70467;SDS011;57934;51.532;7.684;2023-12-20T06:37:10;28.73;;;8.60;;
70467;SDS011;57934;51.532;7.684;2023-12-20T06:39:36;31.80;;;9.40;;
70467;SDS011;57934;51.532;7.684;2023-12-20T06:42:02;28.75;;;9.63;;
70467;SDS011;57934;51.532;7.684;2023-12-20T06:44:29;28.05;;;9.30;;
70467;SDS011;57934;51.532;7.684;2023-12-20T06:46:55;27.23;;;10.27;;
70467;SDS011;57934;51.532;7.684;2023-12-20T06:49:21;29.10;;;10.30;;
70467;SDS011;57934;51.532;7.684;2023-12-20T06:51:47;26.15;;;9.23;;
70467;SDS011;57934;51.532;7.684;2023-12-20T06:54:12;30.92;;;10.55;;
70467;SDS011;57934;51.532;7.684;2023-12-20T06:56:38;28.67;;;10.40;;
70467;SDS011;57934;51.532;7.684;2023-12-20T06:59:05;23.23;;;9.88;;
70467;SDS011;57934;51.532;7.684;2023-12-20T07:01:32;33.13;;;11.10;;
70467;SDS011;57934;51.532;7.684;2023-12-20T07:03:58;23.88;;;10.43;;
70467;SDS011;57934;51.532;7.684;2023-12-20T07:06:24;29.63;;;11.85;;
70467;SDS011;57934;51.532;7.684;2023-12-20T07:08:52;28.70;;;10.90;;
70467;SDS011;57934;51.532;7.684;2023-12-20T07:11:19;29.83;;;10.32;;
70467;SDS011;57934;51.532;7.684;2023-12-20T07:13:45;28.77;;;11.10;;
70467;SDS011;57934;51.532;7.684;2023-12-20T07:16:11;36.42;;;10.98;;
70467;SDS011;57934;51.532;7.684;2023-12-20T07:18:37;27.73;;;10.00;;
70467;SDS011;57934;51.532;7.684;2023-12-20T07:21:03;22.75;;;9.50;;
70467;SDS011;57934;51.532;7.684;2023-12-20T07:23:29;27.20;;;9.63;;
70467;SDS011;57934;51.532;7.684;2023-12-20T07:25:55;24.88;;;9.00;;
70467;SDS011;57934;51.532;7.684;2023-12-20T07:28:22;30.65;;;9.45;;
70467;SDS011;57934;51.532;7.684;2023-12-20T07:30:48;26.35;;;9.13;;
70467;SDS011;57934;51.532;7.684;2023-12-20T07:33:13;21.77;;;9.63;;
70467;SDS011;57934;51.532;7.684;2023-12-20T07:35:39;32.53;;;8.70;;
70467;SDS011;57934;51.532;7.684;2023-12-20T07:38:06;23.98;;;8.93;;
70467;SDS011;57934;51.532;7.684;2023-12-20T07:40:32;31.20;;;9.90;;
70467;SDS011;57934;51.532;7.684;2023-12-20T07:42:58;24.95;;;8.88;;
70467;SDS011;57934;51.532;7.684;2023-12-20T07:45:24;25.90;;;8.77;;
70467;SDS011;57934;51.532;7.684;2023-12-20T07:47:52;24.58;;;8.20;;
70467;SDS011;57934;51.532;7.684;2023-12-20T07:50:19;26.33;;;9.15;;
70467;SDS011;57934;51.532;7.684;2023-12-20T07:52:45;23.52;;;8.77;;
70467;SDS011;57934;51.532;7.684;2023-12-20T07:55:11;28.65;;;8.45;;
70467;SDS011;57934;51.532;7.684;2023-12-20T07:57:37;24.20;;;7.95;;
70467;SDS011;57934;51.532;7.684;2023-12-20T08:00:03;21.45;;;7.82;;
70467;SDS011;57934;51.532;7.684;2023-12-20T08:02:31;27.02;;;8.45;;
70467;SDS011;57934;51.532;7.684;2023-12-20T08:04:57;24.85;;;7.38;;
70467;SDS011;57934;51.532;7.684;2023-12-20T08:07:24;27.45;;;8.60;;
70467;SDS011;57934;51.532;7.684;2023-12-20T08:09:50;28.98;;;8.25;;
70467;SDS011;57934;51.532;7.684;2023-12-20T08:12:18;30.58;;;8.18;;
70467;SDS011;57934;51.532;7.684;2023-12-20T08:14:44;25.00;;;7.70;;
70467;SDS011;57934;51.532;7.684;2023-12-20T08:17:10;28.83;;;7.80;;
70467;SDS011;57934;51.532;7.684;2023-12-20T08:19:38;23.85;;;8.20;;
70467;SDS011;57934;51.532;7.684;2023-12-20T08:22:04;22.45;;;7.88;;
70467;SDS011;57934;51.532;7.684;2023-12-20T08:24:33;23.77;;;7.90;;
70467;SDS011;57934;51.532;7.684;2023-12-20T08:26:59;25.23;;;8.13;;
70467;SDS011;57934;51.532;7.684;2023-12-20T08:29:26;26.92;;;8.07;;
70467;SDS011;57934;51.532;7.684;2023-12-20T08:31:52;31.55;;;8.63;;
70467;SDS011;57934;51.532;7.684;2023-12-20T08:34:21;20.73;;;8.85;;
70467;SDS011;57934;51.532;7.684;2023-12-20T08:36:47;22.40;;;7.78;;
70467;SDS011;57934;51.532;7.684;2023-12-20T08:39:14;21.60;;;8.27;;
70467;SDS011;57934;51.532;7.684;2023-12-20T08:41:40;21.75;;;8.38;;
70467;SDS011;57934;51.532;7.684;2023-12-20T08:44:07;19.90;;;7.70;;
70467;SDS011;57934;51.532;7.684;2023-12-20T08:46:33;19.60;;;8.75;;
70467;SDS011;57934;51.532;7.684;2023-12-20T08:48:59;24.77;;;7.55;;
70467;SDS011;57934;51.532;7.684;2023-12-20T08:51:26;25.67;;;8.35;;
70467;SDS011;57934;51.532;7.684;2023-12-20T08:53:54;23.65;;;7.70;;
70467;SDS011;57934;51.532;7.684;2023-12-20T08:56:20;22.05;;;7.68;;
70467;SDS011;57934;51.532;7.684;2023-12-20T08:58:47;19.17;;;7.10;;
70467;SDS011;57934;51.532;7.684;2023-12-20T09:01:14;26.65;;;7.22;;
70467;SDS011;57934;51.532;7.684;2023-12-20T09:03:40;22.10;;;6.53;;
70467;SDS011;57934;51.532;7.684;2023-12-20T09:06:06;22.45;;;7.22;;
70467;SDS011;57934;51.532;7.684;2023-12-20T09:08:34;22.15;;;7.28;;
70467;SDS011;57934;51.532;7.684;2023-12-20T09:11:00;18.48;;;6.78;;
70467;SDS011;57934;51.532;7.684;2023-12-20T09:13:26;18.70;;;6.65;;
70467;SDS011;57934;51.532;7.684;2023-12-20T09:15:57;16.85;;;6.28;;
70467;SDS011;57934;51.532;7.684;2023-12-20T09:18:24;17.23;;;6.40;;
70467;SDS011;57934;51.532;7.684;2023-12-20T09:20:50;21.15;;;6.65;;
70467;SDS011;57934;51.532;7.684;2023-12-20T09:23:18;25.92;;;7.72;;
70467;SDS011;57934;51.532;7.684;2023-12-20T09:25:44;34.60;;;8.38;;
70467;SDS011;57934;51.532;7.684;2023-12-20T09:28:16;14.50;;;6.20;;
70467;SDS011;57934;51.532;7.684;2023-12-20T09:30:42;20.95;;;6.25;;
70467;SDS011;57934;51.532;7.684;2023-12-20T09:33:16;19.45;;;6.38;;
70467;SDS011;57934;51.532;7.684;2023-12-20T09:35:42;22.10;;;6.35;;
70467;SDS011;57934;51.532;7.684;2023-12-20T09:38:09;23.10;;;5.95;;
70467;SDS011;57934;51.532;7.684;2023-12-20T09:40:35;19.85;;;6.50;;
70467;SDS011;57934;51.532;7.684;2023-12-20T09:43:10;16.85;;;6.18;;
70467;SDS011;57934;51.532;7.684;2023-12-20T09:45:39;17.85;;;6.20;;
70467;SDS011;57934;51.532;7.684;2023-12-20T09:48:06;27.98;;;7.20;;
70467;SDS011;57934;51.532;7.684;2023-12-20T09:50:33;20.10;;;6.07;;
70467;SDS011;57934;51.532;7.684;2023-12-20T09:52:59;25.70;;;6.40;;
70467;SDS011;57934;51.532;7.684;2023-12-20T09:55:26;20.23;;;5.82;;
70467;SDS011;57934;51.532;7.684;2023-12-20T09:57:54;19.20;;;6.60;;
70467;SDS011;57934;51.532;7.684;2023-12-20T10:00:20;17.85;;;5.50;;
70467;SDS011;57934;51.532;7.684;2023-12-20T10:02:50;17.10;;;5.88;;
70467;SDS011;57934;51.532;7.684;2023-12-20T10:05:29;18.85;;;5.82;;
70467;SDS011;57934;51.532;7.684;2023-12-20T10:07:58;18.13;;;6.28;;
70467;SDS011;57934;51.532;7.684;2023-12-20T10:10:25;19.25;;;5.57;;
70467;SDS011;57934;51.532;7.684;2023-12-20T10:13:05;16.50;;;5.78;;
70467;SDS011;57934;51.532;7.684;2023-12-20T10:15:36;22.83;;;5.60;;
70467;SDS011;57934;51.532;7.684;2023-12-20T10:18:03;19.60;;;6.15;;
70467;SDS011;57934;51.532;7.684;2023-12-20T10:20:30;22.90;;;4.75;;
70467;SDS011;57934;51.532;7.684;2023-12-20T10:22:58;17.25;;;5.00;;
70467;SDS011;57934;51.532;7.684;2023-12-20T10:25:24;25.42;;;5.55;;
70467;SDS011;57934;51.532;7.684;2023-12-20T10:28:08;19.80;;;4.45;;
70467;SDS011;57934;51.532;7.684;2023-12-20T10:30:45;11.83;;;4.90;;
70467;SDS011;57934;51.532;7.684;2023-12-20T10:33:13;24.17;;;5.65;;
70467;SDS011;57934;51.532;7.684;2023-12-20T10:35:39;21.63;;;5.30;;
70467;SDS011;57934;51.532;7.684;2023-12-20T10:38:07;21.70;;;4.95;;
70467;SDS011;57934;51.532;7.684;2023-12-20T10:40:36;21.40;;;5.45;;
70467;SDS011;57934;51.532;7.684;2023-12-20T10:43:04;19.27;;;5.20;;
70467;SDS011;57934;51.532;7.684;2023-12-20T10:45:31;16.88;;;4.93;;
70467;SDS011;57934;51.532;7.684;2023-12-20T10:47:57;19.23;;;5.53;;
70467;SDS011;57934;51.532;7.684;2023-12-20T10:50:27;12.85;;;4.82;;
70467;SDS011;57934;51.532;7.684;2023-12-20T10:52:57;15.30;;;4.95;;
70467;SDS011;57934;51.532;7.684;2023-12-20T10:55:25;22.65;;;5.95;;
70467;SDS011;57934;51.532;7.684;2023-12-20T10:57:54;20.48;;;4.72;;
70467;SDS011;57934;51.532;7.684;2023-12-20T11:00:29;27.23;;;5.60;;
70467;SDS011;57934;51.532;7.684;2023-12-20T11:02:57;15.68;;;5.25;;
70467;SDS011;57934;51.532;7.684;2023-12-20T11:05:49;21.45;;;5.43;;
70467;SDS011;57934;51.532;7.684;2023-12-20T11:08:20;25.40;;;6.38;;
70467;SDS011;57934;51.532;7.684;2023-12-20T11:11:06;19.13;;;5.60;;
70467;SDS011;57934;51.532;7.684;2023-12-20T11:16:27;21.88;;;6.20;;
70467;SDS011;57934;51.532;7.684;2023-12-20T11:18:53;19.60;;;5.93;;
70467;SDS011;57934;51.532;7.684;2023-12-20T11:21:19;18.73;;;5.53;;
70467;SDS011;57934;51.532;7.684;2023-12-20T11:23:46;21.38;;;6.03;;
70467;SDS011;57934;51.532;7.684;2023-12-20T11:26:13;17.42;;;5.38;;
70467;SDS011;57934;51.532;7.684;2023-12-20T11:28:41;18.17;;;6.22;;
70467;SDS011;57934;51.532;7.684;2023-12-20T11:31:07;16.52;;;6.18;;
70467;SDS011;57934;51.532;7.684;2023-12-20T11:33:36;20.10;;;6.50;;
70467;SDS011;57934;51.532;7.684;2023-12-20T11:36:03;13.70;;;5.90;;
70467;SDS011;57934;51.532;7.684;2023-12-20T11:38:39;17.38;;;5.63;;
70467;SDS011;57934;51.532;7.684;2023-12-20T11:43:53;21.42;;;6.10;;
70467;SDS011;57934;51.532;7.684;2023-12-20T11:46:20;17.55;;;6.43;;
70467;SDS011;57934;51.532;7.684;2023-12-20T11:48:46;21.48;;;6.95;;
70467;SDS011;57934;51.532;7.684;2023-12-20T11:51:13;19.67;;;5.82;;
70467;SDS011;57934;51.532;7.684;2023-12-20T11:53:40;22.98;;;6.68;;
70467;SDS011;57934;51.532;7.684;2023-12-20T11:56:08;19.42;;;5.65;;
70467;SDS011;57934;51.532;7.684;2023-12-20T11:58:35;17.70;;;5.70;;
70467;SDS011;57934;51.532;7.684;2023-12-20T12:01:01;14.07;;;5.50;;
70467;SDS011;57934;51.532;7.684;2023-12-20T12:03:28;17.85;;;6.30;;
70467;SDS011;57934;51.532;7.684;2023-12-20T12:05:54;14.45;;;5.35;;
70467;SDS011;57934;51.532;7.684;2023-12-20T12:08:21;15.73;;;5.70;;
70467;SDS011;57934;51.532;7.684;2023-12-20T12:10:47;17.27;;;6.00;;
70467;SDS011;57934;51.532;7.684;2023-12-20T12:13:13;18.90;;;6.20;;
70467;SDS011;57934;51.532;7.684;2023-12-20T12:15:40;18.00;;;6.22;;
70467;SDS011;57934;51.532;7.684;2023-12-20T12:18:08;21.42;;;6.38;;
70467;SDS011;57934;51.532;7.684;2023-12-20T12:20:34;18.27;;;7.43;;
70467;SDS011;57934;51.532;7.684;2023-12-20T12:23:03;17.35;;;6.78;;
70467;SDS011;57934;51.532;7.684;2023-12-20T12:25:31;27.33;;;7.93;;
70467;SDS011;57934;51.532;7.684;2023-12-20T12:27:58;20.30;;;8.15;;
70467;SDS011;57934;51.532;7.684;2023-12-20T12:30:25;20.02;;;7.72;;
70467;SDS011;57934;51.532;7.684;2023-12-20T12:32:52;25.75;;;7.75;;
70467;SDS011;57934;51.532;7.684;2023-12-20T12:35:19;17.60;;;8.15;;
70467;SDS011;57934;51.532;7.684;2023-12-20T12:37:46;26.55;;;8.27;;
70467;SDS011;57934;51.532;7.684;2023-12-20T12:40:13;18.85;;;8.50;;
70467;SDS011;57934;51.532;7.684;2023-12-20T12:42:41;20.98;;;8.38;;
70467;SDS011;57934;51.532;7.684;2023-12-20T12:45:09;24.13;;;9.48;;
70467;SDS011;57934;51.532;7.684;2023-12-20T12:47:37;27.08;;;10.32;;
70467;SDS011;57934;51.532;7.684;2023-12-20T12:50:04;25.73;;;9.43;;
70467;SDS011;57934;51.532;7.684;2023-12-20T12:52:31;17.65;;;8.40;;
70467;SDS011;57934;51.532;7.684;2023-12-20T12:54:57;24.23;;;9.48;;
70467;SDS011;57934;51.532;7.684;2023-12-20T12:57:24;20.17;;;9.27;;
70467;SDS011;57934;51.532;7.684;2023-12-20T12:59:50;22.02;;;9.93;;
70467;SDS011;57934;51.532;7.684;2023-12-20T13:02:17;14.30;;;8.88;;
70467;SDS011;57934;51.532;7.684;2023-12-20T13:04:44;22.30;;;9.13;;
70467;SDS011;57934;51.532;7.684;2023-12-20T13:07:10;18.73;;;9.48;;
70467;SDS011;57934;51.532;7.684;2023-12-20T13:09:38;21.27;;;10.23;;
70467;SDS011;57934;51.532;7.684;2023-12-20T13:12:05;24.08;;;9.52;;
70467;SDS011;57934;51.532;7.684;2023-12-20T13:14:33;22.08;;;9.10;;
70467;SDS011;57934;51.532;7.684;2023-12-20T13:17:01;19.38;;;8.80;;
70467;SDS011;57934;51.532;7.684;2023-12-20T13:19:27;23.23;;;9.13;;
70467;SDS011;57934;51.532;7.684;2023-12-20T13:21:53;25.45;;;9.02;;
70467;SDS011;57934;51.532;7.684;2023-12-20T13:24:19;18.15;;;8.63;;
70467;SDS011;57934;51.532;7.684;2023-12-20T13:26:45;25.55;;;9.30;;
70467;SDS011;57934;51.532;7.684;2023-12-20T13:29:11;18.50;;;8.38;;
70467;SDS011;57934;51.532;7.684;2023-12-20T13:31:37;25.58;;;8.77;;
70467;SDS011;57934;51.532;7.684;2023-12-20T13:34:06;18.73;;;8.25;;
70467;SDS011;57934;51.532;7.684;2023-12-20T13:36:33;33.05;;;9.85;;
70467;SDS011;57934;51.532;7.684;2023-12-20T13:38:59;21.00;;;8.75;;
70467;SDS011;57934;51.532;7.684;2023-12-20T13:41:25;26.70;;;9.18;;
70467;SDS011;57934;51.532;7.684;2023-12-20T13:43:51;24.38;;;8.52;;
70467;SDS011;57934;51.532;7.684;2023-12-20T13:46:18;22.02;;;8.98;;
70467;SDS011;57934;51.532;7.684;2023-12-20T13:48:44;22.17;;;9.20;;
70467;SDS011;57934;51.532;7.684;2023-12-20T13:51:10;19.55;;;9.43;;
70467;SDS011;57934;51.532;7.684;2023-12-20T13:53:37;21.58;;;8.60;;
70467;SDS011;57934;51.532;7.684;2023-12-20T13:56:07;23.42;;;9.13;;
70467;SDS011;57934;51.532;7.684;2023-12-20T13:58:33;19.67;;;8.30;;
70467;SDS011;57934;51.532;7.684;2023-12-20T14:01:00;20.20;;;8.40;;
70467;SDS011;57934;51.532;7.684;2023-12-20T14:03:26;23.17;;;8.57;;
70467;SDS011;57934;51.532;7.684;2023-12-20T14:05:52;20.33;;;8.23;;
70467;SDS011;57934;51.532;7.684;2023-12-20T14:08:18;20.08;;;8.38;;
70467;SDS011;57934;51.532;7.684;2023-12-20T14:10:44;20.65;;;9.10;;
70467;SDS011;57934;51.532;7.684;2023-12-20T14:13:10;16.83;;;8.10;;
70467;SDS011;57934;51.532;7.684;2023-12-20T14:15:36;20.05;;;8.00;;
70467;SDS011;57934;51.532;7.684;2023-12-20T14:18:04;13.88;;;8.30;;
70467;SDS011;57934;51.532;7.684;2023-12-20T14:20:34;15.90;;;7.57;;
70467;SDS011;57934;51.532;7.684;2023-12-20T14:23:01;17.05;;;7.50;;
70467;SDS011;57934;51.532;7.684;2023-12-20T14:25:27;14.15;;;7.03;;
70467;SDS011;57934;51.532;7.684;2023-12-20T14:27:54;11.23;;;6.88;;
70467;SDS011;57934;51.532;7.684;2023-12-20T14:30:21;15.07;;;6.65;;
70467;SDS011;57934;51.532;7.684;2023-12-20T14:32:49;12.85;;;6.35;;
70467;SDS011;57934;51.532;7.684;2023-12-20T14:35:16;16.88;;;6.82;;